Time;durP1;ratioP1;P1;durP2;ratioP2;P2;SDS_P1;SDS_P2;PMS_P1;PMS_P2;Temp;Humidity;BMP_temperature;BMP_pressure;BME280_temperature;BME280_humidity;BME280_pressure;Samples;Min_cycle;Max_cycle;Signal;HPM_P1;HPM_P2
2021/12/30 00:01:19;;;;;;;30.80;11.80;;;12.00;99.90;;;13.26;100.00;99983.13;5058906;28;20118;-87
2021/12/30 00:03:48;;;;;;;24.70;11.32;;;11.90;99.90;;;13.16;100.00;99979.84;5058138;28;20028;-85
2021/12/30 00:06:17;;;;;;;27.90;11.43;;;11.90;99.90;;;13.18;100.00;99990.66;5057821;28;20056;-89
2021/12/30 00:08:45;;;;;;;35.45;12.75;;;11.80;99.90;;;13.06;100.00;99994.59;5059670;28;20029;-86
2021/12/30 00:11:12;;;;;;;31.92;12.20;;;11.70;99.90;;;13.04;100.00;99996.97;5059053;28;20025;-87
2021/12/30 00:13:40;;;;;;;35.20;13.18;;;11.70;99.90;;;12.94;100.00;100003.28;5058303;28;20032;-86
2021/12/30 00:16:07;;;;;;;28.48;12.68;;;11.60;99.90;;;12.93;100.00;100012.09;5059081;28;20031;-88
2021/12/30 00:18:33;;;;;;;31.65;11.68;;;11.70;99.90;;;13.03;100.00;100028.19;5058144;28;20025;-83
2021/12/30 00:20:58;;;;;;;34.78;13.13;;;11.70;99.90;;;13.05;100.00;100028.59;5058028;28;20025;-84
2021/12/30 00:23:24;;;;;;;34.10;12.23;;;11.60;99.90;;;12.76;100.00;100033.19;5075574;28;20063;-86
2021/12/30 00:25:50;;;;;;;35.67;12.88;;;11.70;99.90;;;12.90;100.00;100019.31;5057218;28;20124;-89
2021/12/30 00:28:22;;;;;;;50.45;14.32;;;11.60;99.90;;;12.90;100.00;100024.09;5059169;28;20029;-87
2021/12/30 00:30:51;;;;;;;35.50;14.35;;;11.60;99.90;;;12.88;100.00;100021.66;5056845;28;20064;-88
2021/12/30 00:33:19;;;;;;;35.78;13.95;;;11.60;99.90;;;12.88;100.00;100020.84;5057420;28;20039;-84
2021/12/30 00:35:45;;;;;;;32.92;14.25;;;11.60;99.90;;;12.82;100.00;100028.03;5058436;28;20079;-86
2021/12/30 00:38:12;;;;;;;34.55;14.57;;;11.60;99.90;;;12.86;100.00;100051.28;5057666;28;20033;-86
2021/12/30 00:40:39;;;;;;;39.65;15.77;;;11.60;99.90;;;12.79;100.00;100043.63;5058856;28;20033;-86
2021/12/30 00:43:08;;;;;;;38.80;14.57;;;11.60;99.90;;;12.87;100.00;100050.91;5057453;28;20033;-87
2021/12/30 00:45:36;;;;;;;36.70;15.00;;;11.60;99.90;;;12.77;100.00;100046.00;5056791;28;20496;-84
2021/12/30 00:48:05;;;;;;;36.88;14.43;;;11.60;99.90;;;12.83;100.00;100043.66;5056928;28;20033;-84
2021/12/30 00:50:36;;;;;;;33.95;14.88;;;11.60;99.90;;;12.83;100.00;100057.66;5057534;28;20048;-83
2021/12/30 00:53:04;;;;;;;39.42;13.85;;;11.60;99.90;;;12.76;100.00;100057.59;5058207;28;20111;-84
2021/12/30 00:55:30;;;;;;;35.83;12.05;;;11.50;99.90;;;12.78;100.00;100066.44;5056340;28;20029;-85
2021/12/30 00:57:56;;;;;;;31.35;11.25;;;11.50;99.90;;;12.84;100.00;100060.09;5073404;28;20392;-87
2021/12/30 01:00:23;;;;;;;29.08;12.02;;;11.50;99.90;;;12.69;100.00;100064.75;5074270;28;20033;-85
2021/12/30 01:02:51;;;;;;;38.05;13.40;;;11.50;99.90;;;12.75;100.00;100067.22;5059645;28;20028;-85
2021/12/30 01:05:17;;;;;;;31.80;10.57;;;11.50;99.90;;;12.66;100.00;100062.72;5070610;28;20053;-83
2021/12/30 01:07:44;;;;;;;33.70;11.98;;;11.40;99.90;;;12.65;100.00;100071.50;5061285;28;20098;-85
2021/12/30 01:10:16;;;;;;;38.15;12.38;;;11.40;99.90;;;12.67;100.00;100081.16;5056531;28;20463;-86
2021/12/30 01:12:44;;;;;;;31.35;11.75;;;11.40;99.90;;;12.68;100.00;100076.34;5056269;28;20028;-86
2021/12/30 01:15:17;;;;;;;31.92;10.30;;;11.40;99.90;;;12.64;100.00;100083.91;5057754;28;20465;-86
2021/12/30 01:20:17;;;;;;;26.83;9.32;;;11.40;99.90;;;12.66;100.00;100084.31;5056668;28;20035;-86
2021/12/30 01:22:43;;;;;;;29.42;9.05;;;11.40;99.90;;;12.60;100.00;100072.66;5055704;28;20187;-85
2021/12/30 01:25:14;;;;;;;30.67;9.30;;;11.40;99.90;;;12.74;100.00;100076.81;5065337;28;20033;-84
2021/12/30 01:27:40;;;;;;;30.90;9.73;;;11.50;99.90;;;12.74;100.00;100077.59;5052151;28;20116;-87
2021/12/30 01:30:17;;;;;;;24.95;8.48;;;11.50;99.90;;;12.68;100.00;100079.94;5035505;28;20032;-87
2021/12/30 01:32:43;;;;;;;33.97;8.75;;;11.50;99.90;;;12.74;100.00;100094.44;5036062;28;20033;-83
2021/12/30 01:35:15;;;;;;;33.88;9.00;;;11.40;99.90;;;12.64;100.00;100103.53;5052214;28;20500;-84
2021/12/30 01:37:41;;;;;;;21.92;7.45;;;11.50;99.90;;;12.74;100.00;100102.03;5052207;28;20033;-87
2021/12/30 01:40:13;;;;;;;31.98;8.60;;;11.50;99.90;;;12.78;100.00;100100.84;5037464;28;20030;-87
2021/12/30 01:42:40;;;;;;;26.52;7.47;;;11.50;99.90;;;12.79;100.00;100096.06;5036154;28;20041;-84
2021/12/30 01:45:10;;;;;;;30.92;7.88;;;11.50;99.90;;;12.76;100.00;100114.44;5038418;28;20033;-87
2021/12/30 01:47:42;;;;;;;33.63;9.02;;;11.50;99.90;;;12.76;100.00;100120.06;5037798;28;20029;-86
2021/12/30 01:50:10;;;;;;;28.10;8.02;;;11.50;99.90;;;12.73;100.00;100120.81;5039115;28;20025;-86
2021/12/30 01:52:36;;;;;;;27.55;7.13;;;11.50;99.90;;;12.85;100.00;100125.31;5038450;28;20091;-89
2021/12/30 01:55:02;;;;;;;32.63;8.38;;;11.60;99.90;;;12.90;100.00;100133.41;5040670;28;20101;-84
2021/12/30 01:57:28;;;;;;;28.27;7.25;;;11.60;99.90;;;12.89;100.00;100126.19;5054366;28;20033;-84
2021/12/30 01:59:54;;;;;;;27.50;7.20;;;11.60;99.90;;;12.92;100.00;100134.63;5037851;28;20037;-86
2021/12/30 02:02:20;;;;;;;26.77;7.82;;;11.60;99.90;;;12.88;100.00;100121.75;5054475;28;20111;-86
2021/12/30 02:04:46;;;;;;;28.90;8.43;;;11.60;99.90;;;12.84;100.00;100132.97;5037351;28;20057;-84
2021/12/30 02:07:14;;;;;;;28.40;8.02;;;11.60;99.90;;;12.94;100.00;100115.41;5037577;28;20103;-84
2021/12/30 02:09:40;;;;;;;27.55;7.88;;;11.60;99.90;;;12.93;100.00;100124.22;5038945;28;20029;-86
2021/12/30 02:12:08;;;;;;;28.13;8.77;;;11.60;99.90;;;12.92;100.00;100126.22;5037284;28;20524;-86
2021/12/30 02:14:35;;;;;;;28.10;8.13;;;11.60;99.90;;;12.95;100.00;100131.03;5036607;28;20086;-87
2021/12/30 02:17:05;;;;;;;33.70;8.90;;;11.70;99.90;;;12.96;100.00;100123.44;5035532;28;20147;-87
2021/12/30 02:19:32;;;;;;;34.58;8.02;;;11.70;99.90;;;12.92;100.00;100117.81;5035741;28;20049;-86
2021/12/30 02:21:59;;;;;;;29.48;8.07;;;11.70;99.90;;;12.97;100.00;100114.63;5035302;28;20025;-86
2021/12/30 02:24:25;;;;;;;34.78;8.32;;;11.80;99.90;;;13.01;100.00;100117.47;5037081;28;20026;-88
2021/12/30 02:26:52;;;;;;;32.22;8.93;;;11.70;99.90;;;12.93;100.00;100113.81;5058833;28;20033;-87
2021/12/30 02:29:18;;;;;;;32.60;8.25;;;11.80;99.90;;;12.91;100.00;100110.56;5058019;28;20029;-86
2021/12/30 02:31:45;;;;;;;27.10;7.95;;;11.80;99.90;;;13.07;100.00;100122.34;5075893;28;20021;-84
2021/12/30 02:34:12;;;;;;;29.38;7.70;;;11.80;99.90;;;13.03;100.00;100123.50;5055987;28;20024;-86
2021/12/30 02:36:38;;;;;;;28.83;7.65;;;11.80;99.90;;;12.96;100.00;100123.44;5055623;28;20508;-89
2021/12/30 02:39:11;;;;;;;30.35;8.43;;;11.80;99.90;;;13.10;100.00;100132.81;5072920;28;20029;-87
2021/12/30 02:41:38;;;;;;;31.27;9.27;;;11.80;99.90;;;13.08;100.00;100132.41;5055159;28;20094;-86
2021/12/30 02:44:09;;;;;;;26.33;7.15;;;11.80;99.90;;;13.13;100.00;100137.63;5056199;28;20037;-89
2021/12/30 02:46:39;;;;;;;36.50;9.43;;;11.80;99.90;;;13.07;100.00;100141.97;5055002;28;20029;-85
2021/12/30 02:49:06;;;;;;;32.38;8.73;;;11.70;99.90;;;13.02;100.00;100147.94;5056165;28;20104;-86
2021/12/30 02:51:33;;;;;;;33.45;8.82;;;11.70;99.90;;;13.02;100.00;100133.91;5055078;28;20425;-85
2021/12/30 02:54:01;;;;;;;26.60;7.28;;;11.70;99.90;;;13.05;100.00;100132.31;5072906;28;20025;-87
2021/12/30 02:56:31;;;;;;;24.85;8.07;;;11.70;99.90;;;12.90;100.00;100133.41;5057892;28;20029;-87
2021/12/30 02:58:57;;;;;;;29.42;8.27;;;11.70;99.90;;;13.00;100.00;100132.69;5056354;28;20036;-85
2021/12/30 03:01:32;;;;;;;32.60;8.20;;;11.70;99.90;;;13.04;100.00;100133.50;5076889;28;20124;-82
2021/12/30 03:04:03;;;;;;;28.25;7.35;;;11.70;99.90;;;13.11;100.00;100142.84;5091948;28;20128;-84
2021/12/30 03:06:31;;;;;;;28.95;7.97;;;11.80;99.90;;;13.08;100.00;100142.75;5091578;28;20051;-83
2021/12/30 03:08:59;;;;;;;27.10;6.95;;;11.70;99.90;;;13.13;100.00;100131.25;5076009;28;20044;-86
2021/12/30 03:11:27;;;;;;;23.98;6.18;;;11.70;99.90;;;13.17;100.00;100129.25;5071509;28;20036;-88
2021/12/30 03:13:54;;;;;;;23.85;6.68;;;11.80;99.90;;;13.18;100.00;100134.50;5054591;28;20476;-86
2021/12/30 03:16:36;;;;;;;31.35;7.43;;;11.70;99.90;;;13.13;100.00;100140.44;5070769;28;20029;-85
2021/12/30 03:19:04;;;;;;;26.95;8.02;;;11.80;99.90;;;13.15;100.00;100138.06;5057086;28;20060;-85
2021/12/30 03:21:31;;;;;;;27.23;6.10;;;11.80;99.90;;;13.19;100.00;100144.53;5056021;28;20048;-87
2021/12/30 03:24:03;;;;;;;26.23;6.40;;;11.80;99.90;;;13.19;100.00;100144.53;5059231;28;20032;-89
2021/12/30 03:26:31;;;;;;;30.00;6.57;;;11.80;99.90;;;13.10;100.00;100149.63;5060565;28;20036;-87
2021/12/30 03:28:58;;;;;;;27.58;6.32;;;11.70;99.90;;;13.09;100.00;100147.22;5056606;28;20075;-89
2021/12/30 03:31:24;;;;;;;29.02;6.57;;;11.70;99.90;;;13.11;100.00;100148.44;5072405;28;20035;-87
2021/12/30 03:33:51;;;;;;;21.55;6.05;;;11.70;99.90;;;13.08;100.00;100143.59;5054878;28;20022;-86
2021/12/30 03:36:20;;;;;;;28.02;6.13;;;11.70;99.90;;;13.08;100.00;100154.81;5058271;28;20033;-87
2021/12/30 03:38:53;;;;;;;27.83;6.15;;;11.70;99.90;;;13.06;100.00;100147.97;5075255;28;20071;-87
2021/12/30 03:41:25;;;;;;;25.48;6.85;;;11.70;99.90;;;13.07;100.00;100157.97;5075941;28;20039;-85
2021/12/30 03:43:52;;;;;;;25.80;5.72;;;11.70;99.90;;;13.05;100.00;100158.38;5076003;28;20378;-88
2021/12/30 03:46:19;;;;;;;29.10;6.15;;;11.70;99.90;;;13.02;100.00;100153.53;5059742;28;20485;-87
2021/12/30 03:48:45;;;;;;;29.23;6.68;;;11.70;99.90;;;13.02;100.00;100153.53;5058804;28;20384;-86
2021/12/30 03:51:22;;;;;;;25.27;6.30;;;11.70;99.90;;;13.04;100.00;100158.75;5075523;28;20469;-87
2021/12/30 03:53:57;;;;;;;22.23;6.65;;;11.70;99.90;;;13.01;100.00;100154.72;5077412;28;20025;-86
2021/12/30 03:56:29;;;;;;;26.27;7.70;;;11.70;99.90;;;13.04;100.00;100158.75;5076547;28;20051;-85
2021/12/30 03:58:57;;;;;;;26.88;7.95;;;11.70;99.90;;;13.05;100.00;100165.97;5075462;28;20071;-84
2021/12/30 04:01:27;;;;;;;20.52;7.93;;;11.80;99.90;;;13.08;100.00;100168.00;5058088;28;20060;-85
2021/12/30 04:03:54;;;;;;;26.10;8.88;;;11.80;99.90;;;13.05;100.00;100180.00;5072843;28;20033;-85
2021/12/30 04:06:23;;;;;;;22.88;7.72;;;11.70;99.90;;;13.01;100.00;100173.53;5073638;28;20060;-86
2021/12/30 04:08:50;;;;;;;30.50;8.65;;;11.80;99.90;;;12.96;100.00;100171.91;5073612;28;20029;-86
2021/12/30 04:11:16;;;;;;;27.73;9.30;;;11.80;99.90;;;12.96;100.00;100174.72;5056740;28;20477;-88
2021/12/30 04:13:42;;;;;;;26.77;9.23;;;11.80;99.90;;;13.02;100.00;100178.78;5074157;28;20406;-87
2021/12/30 04:16:09;;;;;;;23.40;9.00;;;11.80;99.90;;;12.97;100.00;100183.94;5074309;28;20028;-86
2021/12/30 04:18:35;;;;;;;30.88;8.88;;;11.80;99.90;;;13.01;100.00;100179.13;5057367;28;20091;-88
2021/12/30 04:21:01;;;;;;;29.00;9.70;;;11.80;99.90;;;13.12;100.00;100157.66;5057209;28;20036;-88
2021/12/30 04:23:29;;;;;;;26.42;6.95;;;11.90;99.90;;;13.26;100.00;100168.97;5073419;28;20400;-88
2021/12/30 04:25:55;;;;;;;22.13;7.47;;;12.00;99.90;;;13.33;100.00;100165.44;5073589;28;20036;-88
2021/12/30 04:28:21;;;;;;;22.00;8.70;;;12.00;99.90;;;13.25;100.00;100164.59;5074473;28;20393;-87
2021/12/30 04:30:48;;;;;;;25.90;7.35;;;11.90;99.90;;;13.31;100.00;100165.03;5074203;28;20117;-87
2021/12/30 04:33:14;;;;;;;13.10;6.20;;;12.00;99.90;;;13.36;100.00;100167.47;5057823;28;20021;-87
2021/12/30 04:35:40;;;;;;;20.73;7.70;;;12.00;99.90;;;13.36;100.00;100167.47;5074864;28;20033;-87
2021/12/30 04:38:07;;;;;;;18.52;6.25;;;12.10;99.90;;;13.42;100.00;100163.91;5075627;28;20389;-87
2021/12/30 04:40:33;;;;;;;22.38;7.60;;;12.10;99.90;;;13.47;100.00;100180.41;5075692;28;20032;-86
2021/12/30 04:43:00;;;;;;;28.25;7.93;;;12.10;99.90;;;13.44;100.00;100174.75;5075798;28;20384;-87
2021/12/30 04:45:28;;;;;;;24.85;7.70;;;12.20;99.90;;;13.54;100.00;100168.41;5077454;28;20033;-88
2021/12/30 04:47:55;;;;;;;23.27;6.80;;;12.20;99.90;;;13.55;100.00;100170.03;5059844;28;20021;-87
2021/12/30 04:50:22;;;;;;;16.98;6.80;;;12.20;99.90;;;13.56;100.00;100168.81;5057139;28;20025;-88
2021/12/30 04:52:48;;;;;;;19.10;7.78;;;12.30;99.90;;;13.51;100.00;100172.81;5058475;28;20036;-87
2021/12/30 04:55:15;;;;;;;17.42;6.35;;;12.20;99.90;;;13.53;100.00;100170.41;5073354;28;20477;-88
2021/12/30 04:57:41;;;;;;;15.50;7.00;;;12.30;99.90;;;13.52;100.00;100176.41;5056201;28;20550;-88
2021/12/30 05:00:12;;;;;;;17.77;6.90;;;12.40;99.90;;;13.63;100.00;100166.06;5073075;28;20115;-85
2021/12/30 05:05:19;;;;;;;16.33;6.72;;;12.40;99.90;;;13.69;100.00;100175.75;5061479;28;20036;-88
2021/12/30 05:07:46;;;;;;;15.82;6.13;;;12.40;99.90;;;13.68;100.00;100183.34;5075675;28;20025;-89
2021/12/30 05:10:12;;;;;;;17.42;6.63;;;12.40;99.90;;;13.72;100.00;100183.38;5074141;28;20132;-86
2021/12/30 05:12:38;;;;;;;11.25;5.15;;;12.40;99.90;;;13.60;100.00;100167.66;5073137;28;20049;-84
2021/12/30 05:15:05;;;;;;;11.00;4.03;;;12.40;99.90;;;13.61;100.00;100177.69;5073092;28;20040;-88
2021/12/30 05:17:31;;;;;;;12.75;4.35;;;12.40;99.90;;;13.68;100.00;100176.94;5073051;28;20077;-87
2021/12/30 05:19:56;;;;;;;9.48;4.22;;;12.40;99.90;;;13.70;100.00;100180.97;5072700;28;20136;-87
2021/12/30 05:22:22;;;;;;;10.30;3.60;;;12.40;99.90;;;13.70;100.00;100177.34;5072072;28;20054;-88
2021/12/30 05:24:48;;;;;;;13.10;3.97;;;12.40;99.90;;;13.69;100.00;100184.97;5055569;28;20058;-86
2021/12/30 05:27:14;;;;;;;7.30;3.03;;;12.40;99.90;;;13.68;100.00;100172.13;5072498;28;20433;-89
2021/12/30 05:29:40;;;;;;;6.63;3.03;;;12.40;99.90;;;13.66;100.00;100187.75;5072070;28;20025;-86
2021/12/30 05:32:06;;;;;;;6.07;3.15;;;12.40;99.90;;;13.58;100.00;100183.28;5056548;28;20380;-88
2021/12/30 05:34:31;;;;;;;6.35;2.47;;;12.40;99.90;;;13.63;100.00;100188.53;5073574;28;20020;-86
2021/12/30 05:36:57;;;;;;;3.88;1.95;;;12.50;99.90;;;13.74;100.00;100193.00;5058602;28;20024;-89
2021/12/30 05:39:23;;;;;;;3.08;2.30;;;12.50;99.90;;;13.66;100.00;100194.16;5057411;28;20600;-90
2021/12/30 05:41:49;;;;;;;5.15;1.70;;;12.50;99.90;;;13.73;100.00;100185.00;5076728;28;20033;-86
2021/12/30 05:44:15;;;;;;;3.67;1.65;;;12.50;99.90;;;13.75;100.00;100185.41;5087225;28;20033;-87
2021/12/30 05:46:40;;;;;;;3.53;1.80;;;12.50;99.90;;;13.72;100.00;100186.19;5080866;28;20044;-88
2021/12/30 05:49:08;;;;;;;2.83;1.10;;;12.50;99.90;;;13.75;100.00;100182.59;5062268;28;20025;-86
2021/12/30 05:51:35;;;;;;;5.22;1.58;;;12.50;99.90;;;13.74;100.00;100184.59;5063947;28;20365;-86
2021/12/30 05:54:01;;;;;;;1.10;0.88;;;12.50;99.90;;;13.78;100.00;100179.00;5079479;28;20040;-88
2021/12/30 05:56:27;;;;;;;2.63;1.13;;;12.50;99.90;;;13.70;100.00;100180.97;5085066;28;20033;-85
2021/12/30 05:58:53;;;;;;;4.28;1.00;;;12.50;99.90;;;13.78;100.00;100179.00;5084711;28;20040;-87
2021/12/30 06:01:19;;;;;;;2.05;0.80;;;12.50;99.90;;;13.80;100.00;100179.44;5070207;28;20032;-87
2021/12/30 06:03:44;;;;;;;1.75;0.98;;;12.50;99.90;;;13.76;100.00;100174.97;5089209;28;20032;-85
2021/12/30 06:06:10;;;;;;;1.63;0.90;;;12.60;99.90;;;13.78;100.00;100187.41;5092378;28;20021;-85
2021/12/30 06:08:38;;;;;;;3.33;0.93;;;12.50;99.90;;;13.81;100.00;100181.03;5075014;28;20101;-86
2021/12/30 06:11:03;;;;;;;3.42;0.90;;;12.50;99.90;;;13.78;100.00;100186.63;5089940;28;20017;-85
2021/12/30 06:13:29;;;;;;;2.58;1.10;;;12.50;99.90;;;13.67;100.00;100180.94;5070926;28;20021;-89
2021/12/30 06:15:57;;;;;;;0.98;0.77;;;12.50;99.90;;;13.70;100.00;100186.59;5068640;28;20033;-89
2021/12/30 06:18:25;;;;;;;1.65;1.20;;;12.50;99.90;;;13.74;100.00;100181.78;5065829;28;20028;-90
2021/12/30 06:20:51;;;;;;;1.73;1.20;;;12.40;99.90;;;13.74;100.00;100187.41;5063564;28;20092;-89
2021/12/30 06:23:17;;;;;;;1.33;1.02;;;12.50;99.90;;;13.72;100.00;100183.38;5079811;28;20037;-88
2021/12/30 06:25:44;;;;;;;1.23;0.98;;;12.50;99.90;;;13.74;100.00;100184.59;5066304;28;20043;-89
2021/12/30 06:28:10;;;;;;;1.23;1.10;;;12.50;99.90;;;13.80;100.00;100203.88;5081886;28;20028;-86
2021/12/30 06:30:36;;;;;;;1.98;0.90;;;12.50;99.90;;;13.68;100.00;100196.56;5081540;28;20079;-87
2021/12/30 06:33:02;;;;;;;0.90;0.90;;;12.50;99.90;;;13.83;100.00;100200.28;5086308;28;20013;-84
2021/12/30 06:35:34;;;;;;;2.00;1.17;;;12.50;99.90;;;13.76;100.00;100194.63;5085834;28;20043;-85
2021/12/30 06:38:02;;;;;;;2.05;1.10;;;12.60;99.90;;;13.90;100.00;100206.75;5055422;28;20040;-87
2021/12/30 06:40:30;;;;;;;1.88;1.30;;;12.60;99.90;;;13.98;100.00;100197.19;5060988;28;20051;-89
2021/12/30 06:42:56;;;;;;;1.60;1.25;;;12.60;99.90;;;13.91;100.00;100202.75;5061316;28;20037;-88
2021/12/30 06:45:22;;;;;;;1.67;1.30;;;12.60;99.90;;;13.98;100.00;100194.38;5059302;28;20029;-89
2021/12/30 06:47:48;;;;;;;1.90;1.50;;;12.60;99.90;;;13.92;100.00;100193.13;5075511;28;20104;-90
2021/12/30 06:50:17;;;;;;;2.55;1.50;;;12.70;99.90;;;14.03;100.00;100191.19;5076453;28;20048;-88
2021/12/30 06:52:48;;;;;;;3.10;1.60;;;12.60;99.90;;;14.03;100.00;100196.81;5057727;28;20037;-88
2021/12/30 06:55:16;;;;;;;2.17;1.30;;;12.70;99.90;;;14.09;100.00;100192.44;5058091;28;20432;-86
2021/12/30 06:57:44;;;;;;;2.15;1.60;;;12.80;99.90;;;14.05;100.00;100193.63;5075482;28;20035;-87
2021/12/30 07:00:12;;;;;;;3.58;1.73;;;12.80;99.90;;;14.14;100.00;100206.09;5074320;28;20040;-86
2021/12/30 07:02:42;;;;;;;2.72;1.98;;;12.80;99.90;;;14.16;100.00;100206.50;5073369;28;20036;-84
2021/12/30 07:05:08;;;;;;;2.42;1.70;;;12.80;99.90;;;14.13;100.00;100215.72;5074799;28;20033;-88
2021/12/30 07:07:34;;;;;;;2.95;2.45;;;12.90;99.90;;;14.14;100.00;100210.91;5074821;28;20052;-86
2021/12/30 07:10:00;;;;;;;5.75;2.40;;;12.90;99.90;;;14.18;100.00;100206.94;5061361;28;20063;-89
2021/12/30 07:12:26;;;;;;;4.28;2.83;;;12.90;99.90;;;14.22;100.00;100199.31;5077201;28;20111;-88
2021/12/30 07:14:52;;;;;;;4.70;3.13;;;12.90;99.90;;;14.19;100.00;100202.13;5062657;28;20049;-91
2021/12/30 07:17:20;;;;;;;6.90;4.05;;;12.90;99.90;;;14.19;100.00;100216.94;5076719;28;20029;-89
2021/12/30 07:19:45;;;;;;;6.05;3.92;;;13.00;99.90;;;14.39;100.00;100216.69;5064057;28;20029;-90
2021/12/30 07:22:11;;;;;;;5.28;3.88;;;13.10;99.90;;;14.40;100.00;100215.50;5062932;28;20035;-91
2021/12/30 07:24:39;;;;;;;6.60;4.63;;;13.10;99.90;;;14.41;100.00;100212.31;5062448;28;20061;-89
2021/12/30 07:27:05;;;;;;;6.97;4.72;;;13.10;99.90;;;14.35;100.00;100210.25;5078518;28;20079;-85
2021/12/30 07:29:31;;;;;;;7.85;5.13;;;13.10;99.90;;;14.37;100.00;100225.50;5061113;28;20033;-87
2021/12/30 07:31:57;;;;;;;7.43;4.63;;;13.10;99.90;;;14.33;100.00;100218.22;5060635;28;20028;-87
2021/12/30 07:34:23;;;;;;;7.57;4.75;;;13.20;99.90;;;14.45;100.00;100226.38;5076965;28;20032;-87
2021/12/30 07:36:49;;;;;;;8.30;5.05;;;13.10;99.90;;;14.42;100.00;100227.94;5076232;28;20559;-84
2021/12/30 07:39:15;;;;;;;8.48;5.20;;;13.20;99.90;;;14.41;100.00;100242.41;5076225;28;20064;-84
2021/12/30 07:41:41;;;;;;;9.68;5.70;;;13.20;99.90;;;14.34;100.00;100245.97;5077591;28;20028;-88
2021/12/30 07:44:16;;;;;;;8.68;5.03;;;13.30;99.90;;;14.50;100.00;100263.31;5061544;28;20037;-87
2021/12/30 07:46:43;;;;;;;8.35;5.40;;;13.30;99.90;;;14.45;100.00;100257.28;5062971;28;20052;-86
2021/12/30 07:49:08;;;;;;;8.00;5.13;;;13.30;99.90;;;14.53;100.00;100267.34;5080889;28;20033;-88
2021/12/30 07:51:34;;;;;;;7.43;4.90;;;13.30;99.90;;;14.57;100.00;100274.59;5066799;28;20078;-86
2021/12/30 07:54:02;;;;;;;8.38;4.68;;;13.30;99.90;;;14.60;100.00;100271.00;5070036;28;20078;-82
2021/12/30 07:56:28;;;;;;;7.25;5.38;;;13.30;99.90;;;14.57;100.00;100285.84;5091299;28;20033;-84
2021/12/30 07:58:54;;;;;;;8.35;5.82;;;13.30;99.90;;;14.54;100.00;100271.78;5071709;28;20033;-88
2021/12/30 08:01:22;;;;;;;8.98;5.80;;;13.30;99.90;;;14.61;100.00;100289.44;5084778;28;20025;-87
2021/12/30 08:03:48;;;;;;;7.75;5.78;;;13.30;99.90;;;14.60;100.00;100299.09;5078239;28;20029;-88
2021/12/30 08:06:14;;;;;;;7.35;5.43;;;13.40;99.90;;;14.64;100.00;100297.09;5060999;28;20021;-86
2021/12/30 08:08:40;;;;;;;7.40;5.57;;;13.30;99.90;;;14.61;100.00;100286.63;5078345;28;20048;-85
2021/12/30 08:11:06;;;;;;;7.30;4.60;;;13.40;99.90;;;14.62;100.00;100299.50;5076061;28;20104;-85
2021/12/30 08:13:36;;;;;;;5.60;4.35;;;13.30;99.90;;;14.55;100.00;100291.03;5076150;28;20044;-85
2021/12/30 08:16:02;;;;;;;5.70;4.22;;;13.30;99.90;;;14.59;100.00;100299.47;5077425;28;20384;-86
2021/12/30 08:18:28;;;;;;;5.85;3.88;;;13.30;99.90;;;14.54;100.00;100317.53;5061978;28;20025;-84
2021/12/30 08:20:56;;;;;;;6.45;3.60;;;13.30;99.90;;;14.55;100.00;100305.09;5060895;28;20337;-85
2021/12/30 08:23:23;;;;;;;5.47;3.85;;;13.40;99.90;;;14.66;100.00;100310.78;5077291;28;20500;-83
2021/12/30 08:25:49;;;;;;;4.70;3.53;;;13.40;99.90;;;14.66;100.00;100310.78;5060350;28;20033;-86
2021/12/30 08:28:17;;;;;;;4.30;3.65;;;13.40;99.90;;;14.65;100.00;100318.38;5060049;28;20025;-86
2021/12/30 08:30:44;;;;;;;4.95;3.85;;;13.30;99.90;;;14.60;100.00;100320.78;5075569;28;20032;-87
2021/12/30 08:33:11;;;;;;;6.07;4.18;;;13.40;99.90;;;14.50;100.00;100324.31;5075760;28;20060;-86
2021/12/30 08:35:37;;;;;;;4.90;4.18;;;13.30;99.90;;;14.51;100.00;100323.91;5076345;28;20186;-85
2021/12/30 08:38:03;;;;;;;4.97;3.80;;;13.30;99.90;;;14.52;100.00;100322.72;5059100;28;20039;-87
2021/12/30 08:40:30;;;;;;;4.68;3.72;;;13.30;99.90;;;14.52;100.00;100319.91;5075320;28;20040;-87
2021/12/30 08:42:56;;;;;;;3.70;3.10;;;13.40;99.90;;;14.61;100.00;100322.38;5060126;28;20427;-88
2021/12/30 08:45:22;;;;;;;4.90;3.80;;;13.40;99.90;;;14.65;100.00;100326.81;5059409;28;20032;-88
2021/12/30 08:47:48;;;;;;;4.75;3.35;;;13.40;99.90;;;14.69;100.00;100332.47;5059641;28;20168;-87
2021/12/30 08:50:16;;;;;;;5.25;2.85;;;13.40;99.90;;;14.58;100.00;100328.78;5075352;28;20021;-88
2021/12/30 08:52:46;;;;;;;4.53;2.67;;;13.40;99.90;;;14.66;100.00;100333.25;5075647;28;20025;-89
2021/12/30 08:55:14;;;;;;;4.80;3.20;;;13.40;99.90;;;14.68;100.00;100344.91;5073937;28;20036;-88
2021/12/30 08:57:42;;;;;;;7.65;3.05;;;13.50;99.90;;;14.69;100.00;100349.34;5058345;28;20032;-86
2021/12/30 09:00:25;;;;;;;5.82;3.40;;;13.40;99.90;;;14.60;100.00;100351.69;5075248;28;20029;-88
2021/12/30 09:02:54;;;;;;;5.15;3.42;;;13.50;99.90;;;14.74;100.00;100360.19;5075139;28;20032;-86
2021/12/30 09:05:22;;;;;;;5.03;3.22;;;13.50;99.90;;;14.68;100.00;100362.56;5058768;28;20112;-87
2021/12/30 09:07:50;;;;;;;5.15;3.15;;;13.50;99.90;;;14.70;100.00;100359.38;5059459;28;20029;-87
2021/12/30 09:10:18;;;;;;;5.20;2.88;;;13.40;99.90;;;14.60;100.00;100360.94;5075679;28;20036;-86
2021/12/30 09:12:48;;;;;;;4.50;2.75;;;13.50;99.90;;;14.68;100.00;100358.94;5058590;28;20052;-87
2021/12/30 09:15:23;;;;;;;3.83;2.50;;;13.40;99.90;;;14.74;100.00;100357.38;5077090;28;20029;-85
2021/12/30 09:17:51;;;;;;;3.90;2.47;;;13.40;99.90;;;14.73;100.00;100362.22;5079164;28;20029;-86
2021/12/30 09:20:18;;;;;;;2.80;2.47;;;13.40;99.90;;;14.69;100.00;100363.38;5060952;28;20063;-86
2021/12/30 09:22:46;;;;;;;3.40;1.98;;;13.40;99.90;;;14.63;100.00;100371.41;5070692;28;20071;-86
2021/12/30 09:25:12;;;;;;;3.42;2.60;;;13.40;99.90;;;14.49;100.00;100376.09;5067439;28;20089;-86
2021/12/30 09:27:41;;;;;;;4.30;2.67;;;13.40;99.90;;;14.65;100.00;100385.03;5063291;28;20057;-86
2021/12/30 09:30:13;;;;;;;3.33;2.60;;;13.50;99.90;;;14.67;100.00;100388.28;5057154;28;20025;-87
2021/12/30 09:32:42;;;;;;;4.90;2.35;;;13.40;99.90;;;14.76;100.00;100397.97;5073311;28;20029;-87
2021/12/30 09:35:13;;;;;;;3.38;1.85;;;13.40;99.90;;;14.68;100.00;100407.56;5073216;28;20021;-86
2021/12/30 09:37:41;;;;;;;4.07;2.60;;;13.40;99.90;;;14.64;100.00;100391.88;5055966;28;20029;-88
2021/12/30 09:40:13;;;;;;;3.33;2.10;;;13.40;99.90;;;14.69;100.00;100388.69;5057387;28;20032;-87
2021/12/30 09:42:47;;;;;;;3.47;1.80;;;13.40;99.90;;;14.72;100.00;100379.47;5073696;28;20048;-86
2021/12/30 09:45:14;;;;;;;4.40;2.47;;;13.50;99.90;;;14.78;100.00;100380.69;5057314;28;20029;-85
2021/12/30 09:47:57;;;;;;;5.43;3.25;;;13.50;99.90;;;14.77;100.00;100376.28;5075575;28;20029;-87
2021/12/30 09:50:32;;;;;;;6.78;3.55;;;13.60;99.90;;;14.85;100.00;100385.56;5075604;28;20119;-87
2021/12/30 09:53:00;;;;;;;6.03;3.22;;;13.60;99.90;;;14.91;100.00;100384.78;5058961;28;20048;-89
2021/12/30 09:55:29;;;;;;;3.03;2.40;;;13.60;99.90;;;14.96;100.00;100389.25;5074270;28;20389;-87
2021/12/30 09:57:56;;;;;;;3.47;2.47;;;13.60;99.90;;;15.02;100.00;100398.91;5058555;28;20044;-87
2021/12/30 10:00:23;;;;;;;3.40;2.45;;;13.70;99.90;;;15.03;100.00;100387.25;5058756;28;20083;-86
2021/12/30 10:02:50;;;;;;;2.28;1.90;;;13.70;99.90;;;15.04;100.00;100390.88;5057752;28;20032;-87
2021/12/30 10:05:29;;;;;;;5.22;2.03;;;13.80;99.90;;;15.03;100.00;100389.25;5074529;28;20025;-86
2021/12/30 10:08:18;;;;;;;2.50;1.95;;;13.80;99.90;;;15.02;100.00;100371.59;5061931;28;20052;-87
2021/12/30 10:10:52;;;;;;;2.20;1.77;;;13.80;99.90;;;15.14;100.00;100371.25;5074872;28;20047;-87